Time;durP1;ratioP1;P1;durP2;ratioP2;P2;SDS_P1;SDS_P2;PMS_P1;PMS_P2;Temp;Humidity;BMP_temperature;BMP_pressure;BME280_temperature;BME280_humidity;BME280_pressure;Samples;Min_cycle;Max_cycle;Signal;HPM_P1;HPM_P2
2023/04/15 00:01:17;;;;;;;1.90;1.10;;;;;;;;;;750726;188;813086;-62
2023/04/15 00:03:39;;;;;;;2.40;1.60;;;;;;;;;;765584;183;917149;-63
2023/04/15 00:06:05;;;;;;;2.40;1.40;;;;;;;;;;766592;181;843515;-61
2023/04/15 00:08:32;;;;;;;2.17;1.30;;;;;;;;;;771128;182;618487;-61
2023/04/15 00:11:01;;;;;;;2.43;1.37;;;;;;;;;;749966;185;816383;-61
2023/04/15 00:13:23;;;;;;;2.13;1.23;;;;;;;;;;759290;182;921550;-61
2023/04/15 00:15:49;;;;;;;2.87;1.70;;;;;;;;;;763546;180;918574;-61
2023/04/15 00:18:14;;;;;;;2.10;1.20;;;;;;;;;;769831;181;761178;-62
2023/04/15 00:20:40;;;;;;;2.27;1.50;;;;;;;;;;770865;181;858746;-62
2023/04/15 00:23:06;;;;;;;5.67;1.50;;;;;;;;;;762104;182;915749;-62
2023/04/15 00:25:32;;;;;;;2.50;1.50;;;;;;;;;;754847;185;857531;-62
2023/04/15 00:27:58;;;;;;;2.77;1.70;;;;;;;;;;759149;182;919274;-61
2023/04/15 00:30:25;;;;;;;3.30;1.53;;;;;;;;;;763307;183;916822;-61
2023/04/15 00:32:49;;;;;;;2.37;1.40;;;;;;;;;;760196;182;893616;-62
2023/04/15 00:35:15;;;;;;;2.67;1.40;;;;;;;;;;765756;181;937598;-61
2023/04/15 00:37:41;;;;;;;2.57;1.50;;;;;;;;;;757782;182;925211;-62
2023/04/15 00:40:08;;;;;;;2.10;1.30;;;;;;;;;;763196;183;922982;-61
2023/04/15 00:42:33;;;;;;;4.20;1.70;;;;;;;;;;747382;186;919053;-62
2023/04/15 00:45:00;;;;;;;3.33;1.70;;;;;;;;;;756044;181;920522;-61
2023/04/15 00:47:26;;;;;;;2.40;1.40;;;;;;;;;;755383;182;918501;-62
2023/04/15 00:49:51;;;;;;;2.80;1.27;;;;;;;;;;767722;183;916437;-61
2023/04/15 00:52:17;;;;;;;2.00;1.20;;;;;;;;;;759811;181;944175;-62
2023/04/15 00:54:43;;;;;;;2.77;1.53;;;;;;;;;;767539;182;925078;-61
2023/04/15 00:57:09;;;;;;;2.83;1.80;;;;;;;;;;771679;182;918760;-60
2023/04/15 00:59:35;;;;;;;2.10;1.30;;;;;;;;;;766679;182;919215;-61
2023/04/15 01:02:00;;;;;;;2.30;1.37;;;;;;;;;;762728;181;918840;-62
2023/04/15 01:04:26;;;;;;;3.87;2.70;;;;;;;;;;760161;182;942104;-62
2023/04/15 01:06:52;;;;;;;3.07;1.97;;;;;;;;;;762452;183;919206;-62
2023/04/15 01:09:18;;;;;;;2.83;1.93;;;;;;;;;;752829;186;919662;-62
2023/04/15 01:11:44;;;;;;;2.40;1.60;;;;;;;;;;754339;183;921288;-62
2023/04/15 01:14:10;;;;;;;2.50;1.50;;;;;;;;;;772910;182;850619;-62
2023/04/15 01:16:38;;;;;;;2.60;1.73;;;;;;;;;;765477;179;919256;-62
2023/04/15 01:19:02;;;;;;;2.87;1.80;;;;;;;;;;747760;186;920334;-62
2023/04/15 01:21:28;;;;;;;3.30;1.87;;;;;;;;;;759278;186;919723;-62
2023/04/15 01:23:54;;;;;;;3.03;1.43;;;;;;;;;;762177;182;919309;-63
2023/04/15 01:26:20;;;;;;;2.10;1.27;;;;;;;;;;762361;182;919370;-62
2023/04/15 01:28:45;;;;;;;2.53;1.60;;;;;;;;;;767661;182;919049;-63
2023/04/15 01:31:12;;;;;;;2.90;1.60;;;;;;;;;;752025;184;918887;-61
2023/04/15 01:33:37;;;;;;;2.53;1.50;;;;;;;;;;759255;179;919190;-62
2023/04/15 01:36:03;;;;;;;2.70;1.83;;;;;;;;;;753137;187;918388;-62
2023/04/15 01:38:30;;;;;;;2.20;1.67;;;;;;;;;;767031;182;823783;-62
2023/04/15 01:40:55;;;;;;;2.47;1.67;;;;;;;;;;768088;182;748223;-62
2023/04/15 01:43:21;;;;;;;2.83;1.97;;;;;;;;;;762014;182;836365;-62
2023/04/15 01:45:47;;;;;;;3.10;1.97;;;;;;;;;;769304;183;918311;-62
2023/04/15 01:48:13;;;;;;;2.33;1.40;;;;;;;;;;764982;182;845907;-61
2023/04/15 01:50:38;;;;;;;3.60;2.50;;;;;;;;;;764290;182;919561;-63
2023/04/15 01:53:04;;;;;;;2.73;1.60;;;;;;;;;;769864;182;913506;-62
2023/04/15 01:55:30;;;;;;;3.33;1.50;;;;;;;;;;751286;184;915469;-61
2023/04/15 01:57:56;;;;;;;2.27;1.40;;;;;;;;;;766417;181;910009;-62
2023/04/15 02:00:22;;;;;;;2.43;1.57;;;;;;;;;;765563;182;919372;-61
2023/04/15 02:02:48;;;;;;;3.10;1.63;;;;;;;;;;763491;182;919398;-62
2023/04/15 02:05:14;;;;;;;2.20;1.50;;;;;;;;;;766155;181;920483;-61
2023/04/15 02:07:39;;;;;;;2.70;1.50;;;;;;;;;;756713;182;920783;-62
2023/04/15 02:10:05;;;;;;;5.93;1.30;;;;;;;;;;755039;185;914368;-63
2023/04/15 02:12:31;;;;;;;2.47;1.40;;;;;;;;;;759301;182;918199;-63
2023/04/15 02:14:57;;;;;;;2.50;1.53;;;;;;;;;;761302;183;920094;-62
2023/04/15 02:17:23;;;;;;;2.33;1.40;;;;;;;;;;768151;183;918912;-63
2023/04/15 02:19:49;;;;;;;3.00;1.20;;;;;;;;;;748076;185;918430;-62
2023/04/15 02:22:17;;;;;;;2.33;1.27;;;;;;;;;;761189;182;918741;-64
2023/04/15 02:24:40;;;;;;;2.20;1.50;;;;;;;;;;766268;181;919253;-62
2023/04/15 02:27:06;;;;;;;2.53;1.67;;;;;;;;;;761147;184;915192;-61
2023/04/15 02:29:32;;;;;;;2.23;1.43;;;;;;;;;;763935;182;917795;-62
2023/04/15 02:31:58;;;;;;;2.13;1.30;;;;;;;;;;763239;182;917661;-61
2023/04/15 02:34:25;;;;;;;4.03;1.43;;;;;;;;;;769902;182;917322;-64
2023/04/15 02:36:53;;;;;;;2.70;1.60;;;;;;;;;;768386;181;980346;-63
2023/04/15 02:39:17;;;;;;;2.60;1.80;;;;;;;;;;763276;182;921632;-61
2023/04/15 02:41:42;;;;;;;2.58;1.50;;;;;;;;;;767328;184;921508;-62
2023/04/15 02:44:08;;;;;;;2.50;1.50;;;;;;;;;;762569;182;916174;-61
2023/04/15 02:46:33;;;;;;;3.90;1.53;;;;;;;;;;763440;183;816945;-62
2023/04/15 02:48:59;;;;;;;3.00;2.00;;;;;;;;;;766538;182;919084;-62
2023/04/15 02:51:25;;;;;;;3.30;1.73;;;;;;;;;;764433;181;919128;-61
2023/04/15 02:53:51;;;;;;;2.90;1.73;;;;;;;;;;769582;182;823004;-61
2023/04/15 02:56:18;;;;;;;2.50;1.50;;;;;;;;;;767376;182;818271;-62
2023/04/15 02:58:43;;;;;;;2.30;1.43;;;;;;;;;;774340;182;918717;-62
2023/04/15 03:01:08;;;;;;;3.37;1.70;;;;;;;;;;767372;182;918455;-62
2023/04/15 03:03:34;;;;;;;3.90;1.70;;;;;;;;;;756400;184;969516;-61
2023/04/15 03:06:00;;;;;;;2.70;1.80;;;;;;;;;;757988;184;920987;-62
2023/04/15 03:08:26;;;;;;;3.03;1.90;;;;;;;;;;756249;182;917234;-61
2023/04/15 03:10:52;;;;;;;7.27;3.33;;;;;;;;;;751881;184;919060;-61
2023/04/15 03:13:17;;;;;;;4.20;3.30;;;;;;;;;;764559;181;919562;-62
2023/04/15 03:15:43;;;;;;;6.37;4.03;;;;;;;;;;746625;185;985157;-61
2023/04/15 03:18:09;;;;;;;6.80;3.63;;;;;;;;;;764078;182;910709;-61
2023/04/15 03:20:35;;;;;;;4.50;2.77;;;;;;;;;;766771;182;920937;-62
2023/04/15 03:23:01;;;;;;;5.30;3.20;;;;;;;;;;772113;182;919222;-61
2023/04/15 03:25:27;;;;;;;5.73;3.83;;;;;;;;;;769117;182;813489;-61
2023/04/15 03:27:52;;;;;;;3.40;2.17;;;;;;;;;;766407;181;918079;-64
2023/04/15 03:30:18;;;;;;;4.30;2.00;;;;;;;;;;773254;181;914938;-62
2023/04/15 03:32:44;;;;;;;2.90;1.70;;;;;;;;;;767564;181;921209;-62
2023/04/15 03:35:10;;;;;;;3.20;1.77;;;;;;;;;;760413;184;916004;-61
2023/04/15 03:37:36;;;;;;;4.20;2.27;;;;;;;;;;759577;184;913023;-62
2023/04/15 03:40:02;;;;;;;7.20;2.07;;;;;;;;;;762062;182;917502;-61
2023/04/15 03:42:27;;;;;;;2.80;1.70;;;;;;;;;;762217;183;920102;-62
2023/04/15 03:44:53;;;;;;;3.20;2.27;;;;;;;;;;751394;184;916778;-63
2023/04/15 03:47:19;;;;;;;3.17;1.87;;;;;;;;;;770006;182;918219;-62
2023/04/15 03:49:45;;;;;;;3.03;1.80;;;;;;;;;;755804;181;919758;-61
2023/04/15 03:52:11;;;;;;;2.73;1.77;;;;;;;;;;753714;181;922594;-61
2023/04/15 03:54:37;;;;;;;3.70;1.83;;;;;;;;;;763389;182;922012;-62
2023/04/15 03:57:03;;;;;;;3.03;1.70;;;;;;;;;;759850;182;881266;-62
2023/04/15 03:59:28;;;;;;;2.80;1.90;;;;;;;;;;751091;184;920223;-63
2023/04/15 04:01:54;;;;;;;4.73;3.90;;;;;;;;;;763796;182;819462;-62
2023/04/15 04:04:20;;;;;;;4.73;3.70;;;;;;;;;;760596;182;832076;-61
2023/04/15 04:06:46;;;;;;;7.57;2.93;;;;;;;;;;762892;180;822433;-62
2023/04/15 04:09:12;;;;;;;5.28;2.62;;;;;;;;;;764520;182;924381;-62
2023/04/15 04:11:38;;;;;;;3.47;2.30;;;;;;;;;;768471;181;919257;-63
2023/04/15 04:14:04;;;;;;;3.80;2.47;;;;;;;;;;765039;182;919509;-62
2023/04/15 04:16:30;;;;;;;7.60;4.80;;;;;;;;;;765149;182;884584;-63
2023/04/15 04:18:56;;;;;;;9.80;4.80;;;;;;;;;;765158;182;915378;-62
2023/04/15 04:21:22;;;;;;;7.97;5.83;;;;;;;;;;758431;182;898298;-61
2023/04/15 04:23:47;;;;;;;11.70;6.20;;;;;;;;;;762925;182;850371;-62
2023/04/15 04:26:13;;;;;;;11.70;6.87;;;;;;;;;;765895;182;915743;-63
2023/04/15 04:28:39;;;;;;;11.47;5.83;;;;;;;;;;755585;182;917690;-61
2023/04/15 04:31:06;;;;;;;9.10;5.37;;;;;;;;;;762200;181;918894;-62
2023/04/15 04:33:33;;;;;;;8.48;5.25;;;;;;;;;;765349;181;986294;-62
2023/04/15 04:35:58;;;;;;;10.47;6.07;;;;;;;;;;767520;181;922524;-62
2023/04/15 04:38:24;;;;;;;10.23;5.37;;;;;;;;;;761574;181;916985;-62
2023/04/15 04:40:50;;;;;;;6.57;3.45;;;;;;;;;;765233;181;920687;-61
2023/04/15 04:43:16;;;;;;;9.10;4.53;;;;;;;;;;770966;181;920414;-62
2023/04/15 04:45:42;;;;;;;7.43;3.33;;;;;;;;;;764308;181;918796;-61
2023/04/15 04:48:09;;;;;;;7.17;4.20;;;;;;;;;;761045;182;944157;-61
2023/04/15 04:50:34;;;;;;;9.13;4.10;;;;;;;;;;762460;182;928443;-61
2023/04/15 04:53:00;;;;;;;27.97;16.00;;;;;;;;;;759655;182;919847;-61
2023/04/15 04:55:26;;;;;;;8.70;5.30;;;;;;;;;;759656;182;852324;-62
2023/04/15 04:57:51;;;;;;;11.33;6.20;;;;;;;;;;769460;182;919961;-61
2023/04/15 05:00:18;;;;;;;12.07;7.63;;;;;;;;;;760426;182;917435;-63
2023/04/15 05:02:43;;;;;;;9.90;6.10;;;;;;;;;;764329;181;1019504;-62
2023/04/15 05:05:09;;;;;;;41.50;23.83;;;;;;;;;;761809;182;919473;-61
2023/04/15 05:07:35;;;;;;;6.73;4.27;;;;;;;;;;755371;184;919830;-61
2023/04/15 05:10:01;;;;;;;4.60;3.67;;;;;;;;;;755024;182;919039;-62
2023/04/15 05:12:26;;;;;;;41.40;26.53;;;;;;;;;;756666;182;919126;-62
2023/04/15 05:14:52;;;;;;;22.45;16.77;;;;;;;;;;770874;180;829031;-62
2023/04/15 05:17:18;;;;;;;24.37;16.37;;;;;;;;;;766280;183;817692;-62
2023/04/15 05:19:44;;;;;;;15.53;11.53;;;;;;;;;;761008;182;1020172;-61
2023/04/15 05:22:10;;;;;;;14.27;8.73;;;;;;;;;;769260;182;917544;-61
2023/04/15 05:24:36;;;;;;;9.63;6.27;;;;;;;;;;765417;181;866517;-61
2023/04/15 05:27:02;;;;;;;9.48;4.72;;;;;;;;;;762119;182;922145;-61
2023/04/15 05:29:27;;;;;;;8.60;6.40;;;;;;;;;;762340;182;919268;-61
2023/04/15 05:31:53;;;;;;;10.83;6.87;;;;;;;;;;766801;182;919631;-62
2023/04/15 05:34:19;;;;;;;10.53;5.80;;;;;;;;;;764025;182;816758;-61
2023/04/15 05:36:45;;;;;;;6.53;4.50;;;;;;;;;;759856;182;920070;-62
2023/04/15 05:39:11;;;;;;;4.43;3.70;;;;;;;;;;771675;180;919724;-62
2023/04/15 05:41:37;;;;;;;4.25;3.10;;;;;;;;;;763830;181;918329;-62
2023/04/15 05:44:02;;;;;;;4.73;3.53;;;;;;;;;;758468;181;921055;-62
2023/04/15 05:46:28;;;;;;;4.10;3.13;;;;;;;;;;769798;181;921163;-61
2023/04/15 05:48:54;;;;;;;6.33;3.80;;;;;;;;;;760903;180;920328;-62
2023/04/15 05:51:20;;;;;;;3.67;2.70;;;;;;;;;;754513;183;921570;-61
2023/04/15 05:53:46;;;;;;;3.00;2.35;;;;;;;;;;759064;182;919192;-62
2023/04/15 05:56:12;;;;;;;3.10;2.20;;;;;;;;;;759552;183;920949;-61
2023/04/15 05:58:38;;;;;;;3.47;2.17;;;;;;;;;;758167;181;849971;-62
2023/04/15 06:01:04;;;;;;;4.00;1.90;;;;;;;;;;763438;181;918941;-61
2023/04/15 06:03:29;;;;;;;2.67;1.50;;;;;;;;;;768605;182;918682;-62
2023/04/15 06:05:55;;;;;;;2.67;1.73;;;;;;;;;;763308;181;919191;-63
2023/04/15 06:08:22;;;;;;;2.90;1.83;;;;;;;;;;761826;182;817753;-62
2023/04/15 06:10:47;;;;;;;2.50;1.60;;;;;;;;;;767093;182;918982;-62
2023/04/15 06:13:13;;;;;;;2.57;1.40;;;;;;;;;;763752;180;924329;-62
2023/04/15 06:15:40;;;;;;;2.07;1.33;;;;;;;;;;765967;182;906013;-62
2023/04/15 06:18:06;;;;;;;2.30;1.42;;;;;;;;;;767060;182;946205;-62
2023/04/15 06:20:32;;;;;;;2.40;1.57;;;;;;;;;;752762;181;901598;-62
2023/04/15 06:22:58;;;;;;;2.63;1.53;;;;;;;;;;758398;182;914926;-62
2023/04/15 06:25:24;;;;;;;2.27;1.53;;;;;;;;;;763434;181;841952;-62
2023/04/15 06:27:50;;;;;;;2.37;1.60;;;;;;;;;;767778;182;918137;-62
2023/04/15 06:30:16;;;;;;;2.50;1.70;;;;;;;;;;763236;182;918858;-61
2023/04/15 06:32:42;;;;;;;2.97;1.60;;;;;;;;;;762486;182;911663;-61
2023/04/15 06:35:08;;;;;;;2.50;1.50;;;;;;;;;;766755;182;918756;-62
2023/04/15 06:37:34;;;;;;;2.10;1.30;;;;;;;;;;762217;181;819157;-62
2023/04/15 06:40:00;;;;;;;2.47;1.30;;;;;;;;;;755645;182;889553;-62
2023/04/15 06:42:26;;;;;;;2.40;1.50;;;;;;;;;;759610;182;857096;-62
2023/04/15 06:44:51;;;;;;;2.73;1.33;;;;;;;;;;759697;184;914171;-61
2023/04/15 06:47:18;;;;;;;2.60;1.40;;;;;;;;;;763442;182;921670;-61
2023/04/15 06:49:43;;;;;;;3.00;1.67;;;;;;;;;;760760;181;914399;-62
2023/04/15 06:52:09;;;;;;;3.40;2.10;;;;;;;;;;766281;182;919235;-62
2023/04/15 06:54:35;;;;;;;6.90;3.17;;;;;;;;;;764213;182;920974;-62
2023/04/15 06:57:01;;;;;;;3.87;2.70;;;;;;;;;;748644;185;909524;-61
2023/04/15 06:59:27;;;;;;;4.87;2.63;;;;;;;;;;762599;182;931718;-62
2023/04/15 07:01:53;;;;;;;3.20;2.17;;;;;;;;;;762589;181;831249;-61
2023/04/15 07:04:19;;;;;;;8.52;5.00;;;;;;;;;;762140;182;922541;-62
2023/04/15 07:06:45;;;;;;;20.10;11.03;;;;;;;;;;766712;182;919797;-62
2023/04/15 07:09:11;;;;;;;27.27;16.70;;;;;;;;;;762512;182;818427;-61
2023/04/15 07:11:36;;;;;;;22.23;12.90;;;;;;;;;;759287;182;918932;-62
2023/04/15 07:14:02;;;;;;;11.00;5.90;;;;;;;;;;761017;182;918852;-62
2023/04/15 07:16:28;;;;;;;9.82;6.53;;;;;;;;;;757487;182;820445;-61
2023/04/15 07:18:54;;;;;;;7.87;5.30;;;;;;;;;;756590;182;925698;-62
2023/04/15 07:21:20;;;;;;;6.00;3.50;;;;;;;;;;758294;182;918145;-62
2023/04/15 07:23:46;;;;;;;9.93;4.90;;;;;;;;;;766659;181;916183;-62
2023/04/15 07:26:12;;;;;;;4.27;2.27;;;;;;;;;;764528;181;647977;-62
2023/04/15 07:28:38;;;;;;;4.60;2.33;;;;;;;;;;759341;182;922450;-62
2023/04/15 07:31:03;;;;;;;8.60;5.03;;;;;;;;;;767343;182;915546;-62
2023/04/15 07:33:29;;;;;;;7.30;4.57;;;;;;;;;;760646;182;919188;-61
2023/04/15 07:35:55;;;;;;;2.97;2.20;;;;;;;;;;762121;182;917141;-61
2023/04/15 07:38:22;;;;;;;3.37;1.80;;;;;;;;;;756587;182;822714;-62
2023/04/15 07:40:47;;;;;;;2.80;1.70;;;;;;;;;;771013;182;616687;-62
2023/04/15 07:43:13;;;;;;;4.53;2.90;;;;;;;;;;768535;181;635192;-62
2023/04/15 07:45:39;;;;;;;5.30;3.60;;;;;;;;;;767420;182;628298;-62
2023/04/15 07:48:05;;;;;;;4.07;3.27;;;;;;;;;;769397;182;924468;-61
2023/04/15 07:50:31;;;;;;;5.90;4.40;;;;;;;;;;762168;182;919144;-62
2023/04/15 07:52:56;;;;;;;6.40;4.30;;;;;;;;;;761754;182;916077;-62
2023/04/15 07:55:22;;;;;;;5.20;4.10;;;;;;;;;;768853;182;919615;-62
2023/04/15 07:57:48;;;;;;;5.60;3.30;;;;;;;;;;763810;181;921599;-62
2023/04/15 08:00:15;;;;;;;2.23;1.30;;;;;;;;;;765076;181;809366;-62
2023/04/15 08:02:41;;;;;;;5.40;2.60;;;;;;;;;;761019;182;920165;-62
2023/04/15 08:05:08;;;;;;;3.50;1.77;;;;;;;;;;765230;182;919907;-63
2023/04/15 08:07:33;;;;;;;3.50;2.40;;;;;;;;;;765068;179;918956;-61
2023/04/15 08:09:59;;;;;;;3.87;2.00;;;;;;;;;;766067;181;917699;-62
2023/04/15 08:12:24;;;;;;;4.37;2.13;;;;;;;;;;764217;182;816841;-62
2023/04/15 08:14:51;;;;;;;3.63;1.63;;;;;;;;;;747757;184;917248;-61
2023/04/15 08:17:16;;;;;;;3.40;2.10;;;;;;;;;;760130;182;919141;-62
2023/04/15 08:19:42;;;;;;;2.90;1.73;;;;;;;;;;766776;182;919037;-61
2023/04/15 08:22:08;;;;;;;4.60;2.97;;;;;;;;;;760969;182;919502;-62
2023/04/15 08:24:34;;;;;;;2.40;1.30;;;;;;;;;;763962;181;872196;-62
2023/04/15 08:27:03;;;;;;;2.87;1.80;;;;;;;;;;759235;182;926397;-62
2023/04/15 08:29:26;;;;;;;2.93;1.70;;;;;;;;;;764545;182;915994;-62
2023/04/15 08:31:52;;;;;;;4.67;2.80;;;;;;;;;;761903;179;817168;-62
2023/04/15 08:34:17;;;;;;;3.10;1.90;;;;;;;;;;761726;180;920887;-63
2023/04/15 08:36:43;;;;;;;5.37;3.73;;;;;;;;;;767575;182;928758;-62
2023/04/15 08:39:09;;;;;;;3.40;2.30;;;;;;;;;;762105;181;922732;-62
2023/04/15 08:41:38;;;;;;;3.43;2.23;;;;;;;;;;764032;182;814470;-62
2023/04/15 08:44:04;;;;;;;4.10;2.60;;;;;;;;;;755325;183;919566;-62
2023/04/15 08:46:31;;;;;;;3.43;2.33;;;;;;;;;;756020;182;918592;-62
2023/04/15 08:48:56;;;;;;;2.73;1.60;;;;;;;;;;764474;182;912025;-62
2023/04/15 08:51:22;;;;;;;4.00;1.87;;;;;;;;;;765362;181;915240;-62
2023/04/15 08:53:48;;;;;;;4.17;2.43;;;;;;;;;;766686;182;922004;-62
2023/04/15 08:56:14;;;;;;;2.80;1.80;;;;;;;;;;764027;181;915400;-62
2023/04/15 08:58:40;;;;;;;2.90;1.90;;;;;;;;;;761025;182;918997;-63
2023/04/15 09:01:06;;;;;;;3.53;2.15;;;;;;;;;;765768;182;920083;-62
2023/04/15 09:03:31;;;;;;;5.07;1.63;;;;;;;;;;759832;182;913454;-62
2023/04/15 09:05:57;;;;;;;2.50;1.40;;;;;;;;;;761944;182;817243;-62
2023/04/15 09:08:23;;;;;;;2.70;1.60;;;;;;;;;;767014;182;912115;-62
2023/04/15 09:10:49;;;;;;;3.03;1.60;;;;;;;;;;762791;182;919200;-62
2023/04/15 09:13:15;;;;;;;2.67;1.50;;;;;;;;;;747413;186;916533;-61
2023/04/15 09:15:41;;;;;;;3.80;1.70;;;;;;;;;;761427;182;921310;-63
2023/04/15 09:18:06;;;;;;;2.63;1.60;;;;;;;;;;764542;182;921992;-63
2023/04/15 09:20:39;;;;;;;2.63;1.37;;;;;;;;;;763559;182;918279;-61
2023/04/15 09:23:04;;;;;;;4.73;1.60;;;;;;;;;;762832;181;922939;-62
2023/04/15 09:25:30;;;;;;;2.53;1.23;;;;;;;;;;765194;182;922364;-63
2023/04/15 09:27:57;;;;;;;2.45;1.40;;;;;;;;;;762291;181;816553;-62
2023/04/15 09:30:22;;;;;;;3.00;1.37;;;;;;;;;;761403;182;920276;-62
2023/04/15 09:32:50;;;;;;;3.58;1.95;;;;;;;;;;752610;182;839327;-62
2023/04/15 09:35:15;;;;;;;2.30;1.30;;;;;;;;;;762882;181;713559;-63
2023/04/15 09:37:41;;;;;;;3.20;1.77;;;;;;;;;;766817;179;710628;-62
2023/04/15 09:40:08;;;;;;;2.80;1.40;;;;;;;;;;764027;182;810843;-62
2023/04/15 09:42:33;;;;;;;2.87;1.37;;;;;;;;;;767864;182;818796;-61
2023/04/15 09:45:05;;;;;;;2.53;1.60;;;;;;;;;;760251;182;920124;-62
2023/04/15 09:47:31;;;;;;;2.90;1.53;;;;;;;;;;763059;182;870851;-62
2023/04/15 09:49:56;;;;;;;2.30;1.40;;;;;;;;;;757899;182;919602;-62
2023/04/15 09:52:22;;;;;;;2.43;1.13;;;;;;;;;;764130;182;919669;-62
2023/04/15 09:54:48;;;;;;;3.07;1.57;;;;;;;;;;765130;182;919619;-61
2023/04/15 09:57:14;;;;;;;2.60;1.30;;;;;;;;;;758167;182;919250;-62
2023/04/15 09:59:40;;;;;;;2.63;1.50;;;;;;;;;;767587;182;924093;-61
2023/04/15 10:02:06;;;;;;;2.80;1.60;;;;;;;;;;762765;182;916060;-61
2023/04/15 10:04:31;;;;;;;2.67;1.30;;;;;;;;;;752273;182;816531;-61
2023/04/15 10:06:57;;;;;;;3.50;1.90;;;;;;;;;;766854;180;919410;-62
2023/04/15 10:09:23;;;;;;;3.27;1.57;;;;;;;;;;760443;182;920893;-63
2023/04/15 10:11:49;;;;;;;2.40;1.40;;;;;;;;;;762619;182;918119;-63
2023/04/15 10:14:15;;;;;;;4.97;1.70;;;;;;;;;;768022;182;918250;-62
2023/04/15 10:16:42;;;;;;;2.37;1.20;;;;;;;;;;763286;182;917473;-63
2023/04/15 10:19:06;;;;;;;6.20;2.47;;;;;;;;;;762260;182;920393;-61
2023/04/15 10:21:32;;;;;;;3.07;1.87;;;;;;;;;;764586;182;819366;-62
2023/04/15 10:23:58;;;;;;;3.23;1.73;;;;;;;;;;767364;181;914122;-63
2023/04/15 10:26:24;;;;;;;2.23;1.30;;;;;;;;;;760149;182;917421;-63
2023/04/15 10:28:50;;;;;;;2.90;1.80;;;;;;;;;;752451;183;861667;-62
2023/04/15 10:31:16;;;;;;;2.60;1.53;;;;;;;;;;763664;182;917397;-62
2023/04/15 10:33:42;;;;;;;2.53;1.37;;;;;;;;;;761581;182;919487;-61
2023/04/15 10:36:07;;;;;;;7.30;1.90;;;;;;;;;;762162;182;919617;-62
2023/04/15 10:38:36;;;;;;;2.70;1.93;;;;;;;;;;752786;183;942894;-62
2023/04/15 10:41:08;;;;;;;3.90;1.83;;;;;;;;;;752724;183;816681;-63
2023/04/15 10:43:34;;;;;;;2.20;1.30;;;;;;;;;;760003;182;918613;-63
2023/04/15 10:45:59;;;;;;;4.00;1.98;;;;;;;;;;762098;182;919422;-62
2023/04/15 10:48:25;;;;;;;2.60;1.47;;;;;;;;;;766919;181;920551;-61
2023/04/15 10:50:55;;;;;;;2.70;1.50;;;;;;;;;;753805;182;918737;-62
2023/04/15 10:53:26;;;;;;;2.37;1.40;;;;;;;;;;753102;182;918968;-61
2023/04/15 10:55:51;;;;;;;2.87;1.60;;;;;;;;;;752769;182;919556;-60
2023/04/15 10:58:17;;;;;;;2.50;1.27;;;;;;;;;;766567;182;813029;-61
2023/04/15 11:00:43;;;;;;;2.30;1.30;;;;;;;;;;748441;185;914820;-61
2023/04/15 11:03:09;;;;;;;2.53;1.33;;;;;;;;;;758654;182;915886;-62
2023/04/15 11:05:44;;;;;;;2.17;1.20;;;;;;;;;;767595;182;891429;-61
2023/04/15 11:08:10;;;;;;;2.33;1.33;;;;;;;;;;763726;182;918831;-61
2023/04/15 11:10:51;;;;;;;5.47;2.43;;;;;;;;;;762765;181;818169;-60
2023/04/15 11:13:16;;;;;;;3.43;1.83;;;;;;;;;;763124;182;920439;-61
2023/04/15 11:15:45;;;;;;;3.60;1.70;;;;;;;;;;762320;182;939353;-61
2023/04/15 11:18:19;;;;;;;4.73;2.20;;;;;;;;;;765431;182;916818;-61
2023/04/15 11:20:45;;;;;;;2.53;1.40;;;;;;;;;;766954;180;920400;-61
2023/04/15 11:23:11;;;;;;;7.10;4.50;;;;;;;;;;761362;182;919329;-60
2023/04/15 11:25:37;;;;;;;4.40;2.23;;;;;;;;;;761148;182;818963;-61
2023/04/15 11:28:02;;;;;;;12.60;7.50;;;;;;;;;;770352;182;726150;-61
2023/04/15 11:30:28;;;;;;;18.47;12.93;;;;;;;;;;762441;182;919444;-61
2023/04/15 11:32:54;;;;;;;3.60;2.07;;;;;;;;;;767312;181;826101;-60
2023/04/15 11:35:20;;;;;;;2.30;1.20;;;;;;;;;;768300;182;905189;-60
2023/04/15 11:37:47;;;;;;;2.43;1.43;;;;;;;;;;765706;182;865065;-61
2023/04/15 11:40:12;;;;;;;2.73;1.30;;;;;;;;;;761739;182;913261;-61
2023/04/15 11:42:38;;;;;;;2.75;1.58;;;;;;;;;;763096;182;919405;-60
2023/04/15 11:45:09;;;;;;;2.63;1.40;;;;;;;;;;759400;183;918823;-60
2023/04/15 11:47:35;;;;;;;2.00;0.97;;;;;;;;;;760792;181;921508;-61
2023/04/15 11:50:07;;;;;;;2.00;1.10;;;;;;;;;;758717;182;916795;-62
2023/04/15 11:52:33;;;;;;;2.07;1.03;;;;;;;;;;761764;181;917784;-60
2023/04/15 11:55:01;;;;;;;2.10;1.00;;;;;;;;;;766990;181;924168;-61
2023/04/15 11:57:30;;;;;;;2.10;1.00;;;;;;;;;;761702;182;919706;-60
2023/04/15 11:59:56;;;;;;;2.00;1.00;;;;;;;;;;760308;182;924268;-62
2023/04/15 12:02:22;;;;;;;2.50;1.23;;;;;;;;;;763143;182;917974;-61
2023/04/15 12:04:48;;;;;;;1.97;0.97;;;;;;;;;;758036;182;814602;-61
2023/04/15 12:07:13;;;;;;;3.30;1.93;;;;;;;;;;749012;186;919418;-60
2023/04/15 12:09:40;;;;;;;2.10;1.10;;;;;;;;;;762477;182;922041;-61
2023/04/15 12:12:06;;;;;;;2.03;1.13;;;;;;;;;;762747;182;920483;-61
2023/04/15 12:14:31;;;;;;;2.27;1.20;;;;;;;;;;765831;181;922608;-61
2023/04/15 12:16:58;;;;;;;2.25;1.17;;;;;;;;;;761878;182;882839;-60
2023/04/15 12:19:24;;;;;;;2.35;1.33;;;;;;;;;;766538;182;916611;-60
2023/04/15 12:21:50;;;;;;;2.20;1.30;;;;;;;;;;762642;182;817898;-59
2023/04/15 12:24:16;;;;;;;3.23;1.10;;;;;;;;;;764801;181;707565;-60
2023/04/15 12:26:44;;;;;;;2.10;1.07;;;;;;;;;;769988;182;816998;-59
2023/04/15 12:29:10;;;;;;;2.63;1.40;;;;;;;;;;762937;182;919563;-59
2023/04/15 12:31:36;;;;;;;3.70;1.20;;;;;;;;;;765200;182;915302;-59
2023/04/15 12:34:02;;;;;;;2.20;1.13;;;;;;;;;;749320;186;916351;-61
2023/04/15 12:36:29;;;;;;;2.33;1.40;;;;;;;;;;762327;181;919626;-62
2023/04/15 12:38:53;;;;;;;2.40;1.57;;;;;;;;;;764683;181;910990;-60
2023/04/15 12:41:19;;;;;;;2.55;1.15;;;;;;;;;;759772;182;923670;-61
2023/04/15 12:43:46;;;;;;;2.00;1.00;;;;;;;;;;756345;184;820439;-60
2023/04/15 12:46:11;;;;;;;2.00;1.03;;;;;;;;;;766013;182;661096;-61
2023/04/15 12:48:37;;;;;;;3.00;1.30;;;;;;;;;;760652;182;856966;-60
2023/04/15 12:51:03;;;;;;;3.90;1.97;;;;;;;;;;770276;182;829764;-60
2023/04/15 12:53:29;;;;;;;2.43;1.40;;;;;;;;;;763511;180;920419;-61
2023/04/15 12:55:55;;;;;;;3.73;1.60;;;;;;;;;;753578;182;914228;-61
2023/04/15 12:58:21;;;;;;;2.97;1.93;;;;;;;;;;761008;181;919205;-59
2023/04/15 13:00:48;;;;;;;3.17;1.90;;;;;;;;;;765933;182;918381;-61
2023/04/15 13:03:12;;;;;;;3.30;1.70;;;;;;;;;;762939;182;818310;-61
2023/04/15 13:05:38;;;;;;;2.87;1.57;;;;;;;;;;763521;182;910863;-61
2023/04/15 13:08:04;;;;;;;2.50;1.13;;;;;;;;;;768499;182;715696;-59
2023/04/15 13:10:30;;;;;;;3.13;1.30;;;;;;;;;;766136;182;836241;-60
2023/04/15 13:12:56;;;;;;;3.53;1.37;;;;;;;;;;762977;181;710852;-59
2023/04/15 13:15:22;;;;;;;2.33;1.37;;;;;;;;;;767071;182;819781;-59
2023/04/15 13:17:48;;;;;;;3.70;1.80;;;;;;;;;;753939;183;903722;-59
2023/04/15 13:20:14;;;;;;;2.90;1.50;;;;;;;;;;758851;182;814602;-61
2023/04/15 13:22:40;;;;;;;4.23;1.80;;;;;;;;;;768366;182;918704;-59
2023/04/15 13:25:06;;;;;;;2.70;1.70;;;;;;;;;;761555;181;816348;-59
2023/04/15 13:27:32;;;;;;;2.20;1.20;;;;;;;;;;763062;182;917663;-59
2023/04/15 13:29:58;;;;;;;2.70;1.40;;;;;;;;;;763683;181;884762;-60
2023/04/15 13:32:23;;;;;;;1.97;1.03;;;;;;;;;;763254;182;824862;-60
2023/04/15 13:34:49;;;;;;;2.80;1.40;;;;;;;;;;748750;183;834629;-62
2023/04/15 13:37:15;;;;;;;2.40;1.20;;;;;;;;;;762861;182;943521;-61
2023/04/15 13:39:41;;;;;;;2.03;1.17;;;;;;;;;;759752;182;816319;-60
2023/04/15 13:42:07;;;;;;;2.20;1.10;;;;;;;;;;761462;181;917743;-60
2023/04/15 13:44:33;;;;;;;2.30;1.10;;;;;;;;;;763137;182;925046;-62
2023/04/15 13:46:58;;;;;;;2.77;1.37;;;;;;;;;;767711;182;819440;-60
2023/04/15 13:49:24;;;;;;;2.20;1.00;;;;;;;;;;761532;182;872231;-59
2023/04/15 13:51:50;;;;;;;7.80;1.30;;;;;;;;;;759880;182;824640;-60
2023/04/15 13:54:16;;;;;;;2.37;1.33;;;;;;;;;;759023;182;919295;-60
2023/04/15 13:56:42;;;;;;;2.47;1.20;;;;;;;;;;767758;182;816746;-59
2023/04/15 13:59:08;;;;;;;2.40;1.30;;;;;;;;;;761063;182;861519;-59
2023/04/15 14:01:33;;;;;;;2.50;1.50;;;;;;;;;;751886;184;826004;-58
2023/04/15 14:03:59;;;;;;;5.70;1.50;;;;;;;;;;764535;182;919618;-58
2023/04/15 14:06:26;;;;;;;2.63;1.70;;;;;;;;;;762700;181;817234;-59
2023/04/15 14:08:51;;;;;;;3.30;2.20;;;;;;;;;;762833;179;920161;-59
2023/04/15 14:11:17;;;;;;;2.65;1.98;;;;;;;;;;767594;181;922132;-59
2023/04/15 14:13:43;;;;;;;4.60;1.70;;;;;;;;;;763470;181;703425;-60
2023/04/15 14:16:09;;;;;;;3.40;1.73;;;;;;;;;;761577;182;921209;-58
2023/04/15 14:18:36;;;;;;;2.87;1.57;;;;;;;;;;762684;182;808890;-59
2023/04/15 14:21:00;;;;;;;2.80;1.80;;;;;;;;;;767459;182;825807;-61